createdAt,value
2023-01-13T00:01:29.273Z,99343.20
2023-01-13T00:03:57.789Z,99334.80
2023-01-13T00:06:26.036Z,99329.60
2023-01-13T00:08:54.566Z,99325.80
2023-01-13T00:11:22.937Z,99318.80
2023-01-13T00:13:50.728Z,99318.60
2023-01-13T00:16:20.121Z,99315.20
2023-01-13T00:18:51.066Z,99315.60
2023-01-13T00:21:23.536Z,99312.00
2023-01-13T00:23:54.227Z,99313.80
2023-01-13T00:26:27.508Z,99301.20
2023-01-13T00:29:00.265Z,99287.00
2023-01-13T00:31:30.226Z,99286.20
2023-01-13T00:34:00.920Z,99285.20
2023-01-13T00:36:31.136Z,99292.60
2023-01-13T00:38:59.115Z,99291.00
2023-01-13T00:41:27.754Z,99283.60
2023-01-13T00:43:55.531Z,99284.80
2023-01-13T00:46:23.519Z,99284.60
2023-01-13T00:48:51.668Z,99267.00
2023-01-13T00:51:21.759Z,99274.00
2023-01-13T00:53:51.691Z,99269.40
2023-01-13T00:56:40.484Z,99279.20
2023-01-13T00:59:13.918Z,99296.40
2023-01-13T01:01:41.908Z,99290.80
2023-01-13T01:04:11.099Z,99288.60
2023-01-13T01:06:38.865Z,99292.60
2023-01-13T01:09:07.027Z,99284.20
2023-01-13T01:11:34.811Z,99291.20
2023-01-13T01:14:04.136Z,99292.40
2023-01-13T01:16:34.051Z,99287.80
2023-01-13T01:19:02.442Z,99289.60
2023-01-13T01:21:30.248Z,99295.20
2023-01-13T01:24:01.684Z,99298.40
2023-01-13T01:26:31.810Z,99299.20
2023-01-13T01:29:02.033Z,99302.40
2023-01-13T01:31:33.450Z,99302.60
2023-01-13T01:34:02.050Z,99302.40
2023-01-13T01:36:30.609Z,99303.40
2023-01-13T01:38:59.912Z,99310.40
2023-01-13T01:41:32.096Z,99313.20
2023-01-13T01:44:08.545Z,99317.80
2023-01-13T01:46:42.825Z,99317.00
2023-01-13T01:49:26.146Z,99319.60
2023-01-13T01:52:02.094Z,99329.60
2023-01-13T01:55:22.770Z,99321.60
2023-01-13T01:58:08.476Z,99326.00
2023-01-13T02:00:36.419Z,99319.60
2023-01-13T02:03:07.199Z,99317.60
2023-01-13T02:05:35.865Z,99321.80
2023-01-13T02:08:04.488Z,99328.60
2023-01-13T02:10:32.662Z,99320.60
2023-01-13T02:13:06.384Z,99325.80
2023-01-13T02:16:03.652Z,99323.00
2023-01-13T02:19:01.778Z,99314.40
2023-01-13T02:21:38.526Z,99324.00
2023-01-13T02:24:55.347Z,99326.40
2023-01-13T02:27:47.033Z,99334.00
2023-01-13T02:30:48.684Z,99325.60
2023-01-13T02:34:06.556Z,99328.20
2023-01-13T02:36:45.931Z,99330.40
2023-01-13T02:39:27.249Z,99330.20
2023-01-13T02:42:48.067Z,99334.20
2023-01-13T02:45:29.922Z,99326.80
2023-01-13T02:48:00.297Z,99333.60
2023-01-13T02:50:37.469Z,99338.20
2023-01-13T02:53:28.168Z,99342.60
2023-01-13T02:55:59.662Z,99345.40
2023-01-13T02:58:29.849Z,99340.40
2023-01-13T03:00:58.219Z,99325.40
2023-01-13T03:03:26.151Z,99328.20
2023-01-13T03:06:14.152Z,99324.60
2023-01-13T03:09:15.172Z,99334.20
2023-01-13T03:12:25.505Z,99337.40
2023-01-13T03:15:04.390Z,99338.20
2023-01-13T03:17:41.577Z,99346.40
2023-01-13T03:20:22.238Z,99348.60
2023-01-13T03:23:33.926Z,99346.00
2023-01-13T03:26:26.514Z,99345.80
2023-01-13T03:29:27.504Z,99343.20
2023-01-13T03:32:08.227Z,99344.40
2023-01-13T03:34:48.682Z,99336.40
2023-01-13T03:37:26.372Z,99339.80
2023-01-13T03:40:01.976Z,99338.60
2023-01-13T03:42:35.047Z,99335.40
2023-01-13T03:45:19.881Z,99338.20
2023-01-13T03:47:54.972Z,99327.80
2023-01-13T03:50:33.304Z,99322.40
2023-01-13T03:53:20.442Z,99328.40
2023-01-13T03:56:01.778Z,99322.80
2023-01-13T03:58:37.260Z,99328.00
2023-01-13T04:01:21.155Z,99322.60
2023-01-13T04:03:59.325Z,99334.20
2023-01-13T04:06:47.394Z,99339.00
2023-01-13T04:09:29.025Z,99340.40
2023-01-13T04:12:08.861Z,99333.60
2023-01-13T04:14:37.934Z,99330.60
2023-01-13T04:17:05.732Z,99338.80
2023-01-13T04:19:33.822Z,99339.20
2023-01-13T04:22:01.674Z,99350.80
2023-01-13T04:24:29.411Z,99345.80
2023-01-13T04:26:58.126Z,99356.00
2023-01-13T04:29:26.191Z,99356.40
2023-01-13T04:31:54.174Z,99349.60
2023-01-13T04:34:21.950Z,99345.00
2023-01-13T04:36:49.605Z,99353.00
2023-01-13T04:39:18.003Z,99343.80
2023-01-13T04:41:57.762Z,99348.80
2023-01-13T04:44:27.043Z,99365.20
2023-01-13T04:46:54.830Z,99367.20
2023-01-13T04:49:22.763Z,99366.20
2023-01-13T04:51:50.696Z,99356.60
2023-01-13T04:54:18.594Z,99345.20
2023-01-13T04:56:46.536Z,99349.00
2023-01-13T04:59:14.548Z,99349.80
2023-01-13T05:01:42.494Z,99350.80
2023-01-13T05:04:10.565Z,99345.20
2023-01-13T05:06:38.283Z,99348.00
2023-01-13T05:09:05.943Z,99343.20
2023-01-13T05:12:09.120Z,99331.00
2023-01-13T05:14:55.105Z,99329.00
2023-01-13T05:17:25.549Z,99327.00
2023-01-13T05:19:53.393Z,99336.60
2023-01-13T05:22:39.825Z,99333.80
2023-01-13T05:25:24.393Z,99331.40
2023-01-13T05:27:56.414Z,99340.00
2023-01-13T05:30:36.497Z,99341.80
2023-01-13T05:33:05.123Z,99351.00
2023-01-13T05:35:32.943Z,99351.20
2023-01-13T05:38:00.633Z,99343.80
2023-01-13T05:40:47.263Z,99356.00
2023-01-13T05:43:24.972Z,99360.20
2023-01-13T05:46:00.002Z,99351.00
2023-01-13T05:48:32.769Z,99362.80
2023-01-13T05:51:02.960Z,99349.20
2023-01-13T05:53:31.698Z,99366.80
2023-01-13T05:56:00.280Z,99374.20
2023-01-13T05:58:28.211Z,99372.80
2023-01-13T06:01:06.501Z,99384.00
2023-01-13T06:03:34.803Z,99390.40
2023-01-13T06:06:04.090Z,99397.40
2023-01-13T06:08:32.812Z,99393.40
2023-01-13T06:11:00.820Z,99397.60
2023-01-13T06:13:28.611Z,99401.00
2023-01-13T06:15:59.750Z,99408.40
2023-01-13T06:18:28.412Z,99407.40
2023-01-13T06:20:56.862Z,99420.00
2023-01-13T06:23:24.889Z,99424.80
2023-01-13T06:25:58.494Z,99435.40
2023-01-13T06:28:26.361Z,99438.60
2023-01-13T06:31:00.806Z,99452.40
2023-01-13T06:33:43.164Z,99443.00
2023-01-13T06:36:18.024Z,99444.60
2023-01-13T06:38:50.628Z,99448.40
2023-01-13T06:41:40.299Z,99452.00
2023-01-13T06:44:08.098Z,99455.80
2023-01-13T06:46:36.389Z,99458.40
2023-01-13T06:49:06.965Z,99468.60
2023-01-13T06:51:34.936Z,99471.80
2023-01-13T06:54:02.772Z,99476.80
2023-01-13T06:56:30.531Z,99480.00
2023-01-13T06:58:58.419Z,99477.40
2023-01-13T07:01:26.291Z,99479.40
2023-01-13T07:03:54.152Z,99472.60
2023-01-13T07:06:21.891Z,99473.60
2023-01-13T07:08:49.966Z,99466.40
2023-01-13T07:11:17.687Z,99471.60
2023-01-13T07:14:04.420Z,99472.80
2023-01-13T07:16:32.229Z,99473.20
2023-01-13T07:19:00.071Z,99472.20
2023-01-13T07:21:27.897Z,99486.60
2023-01-13T07:23:56.071Z,99503.20
2023-01-13T07:26:23.778Z,99504.20
2023-01-13T07:28:51.503Z,99490.60
2023-01-13T07:31:21.689Z,99501.40
2023-01-13T07:33:49.554Z,99506.00
2023-01-13T07:36:17.503Z,99504.80
2023-01-13T07:38:45.374Z,99512.40
2023-01-13T07:41:33.759Z,99512.40
2023-01-13T07:44:05.109Z,99513.60
2023-01-13T07:46:33.786Z,99517.00
2023-01-13T07:49:01.580Z,99526.40
2023-01-13T07:51:29.519Z,99539.00
2023-01-13T07:53:57.469Z,99548.40
2023-01-13T07:56:25.209Z,99553.00
2023-01-13T07:58:53.320Z,99552.80
2023-01-13T08:01:21.544Z,99566.60
2023-01-13T08:03:49.352Z,99568.00
2023-01-13T08:06:17.258Z,99586.20
2023-01-13T08:08:45.124Z,99578.00
2023-01-13T08:11:12.934Z,99589.20
2023-01-13T08:13:40.653Z,99589.00
2023-01-13T08:16:12.678Z,99594.20
2023-01-13T08:18:42.046Z,99602.20
2023-01-13T08:21:15.148Z,99620.60
2023-01-13T08:23:45.013Z,99622.20
2023-01-13T08:26:17.785Z,99616.00
2023-01-13T08:28:46.366Z,99627.40
2023-01-13T08:31:17.024Z,99621.20
2023-01-13T08:33:45.102Z,99636.80
2023-01-13T08:36:13.845Z,99635.00
2023-01-13T08:38:42.131Z,99642.00
2023-01-13T08:41:14.200Z,99651.20
2023-01-13T08:43:42.054Z,99660.80
2023-01-13T08:46:09.890Z,99660.20
2023-01-13T08:48:37.979Z,99656.80
2023-01-13T08:51:09.195Z,99669.40
2023-01-13T08:53:37.312Z,99679.00
2023-01-13T08:56:11.675Z,99671.20
2023-01-13T08:58:40.618Z,99683.00
2023-01-13T09:01:13.625Z,99686.80
2023-01-13T09:03:41.955Z,99691.40
2023-01-13T09:06:09.623Z,99699.80
2023-01-13T09:08:37.496Z,99705.40
2023-01-13T09:11:25.825Z,99710.40
2023-01-13T09:13:53.620Z,99727.80
2023-01-13T09:16:21.286Z,99721.20
2023-01-13T09:18:49.113Z,99723.00
2023-01-13T09:21:19.742Z,99727.80
2023-01-13T09:23:47.883Z,99738.20
2023-01-13T09:26:21.216Z,99742.80
2023-01-13T09:28:49.081Z,99752.20
2023-01-13T09:31:17.330Z,99757.40
2023-01-13T09:34:04.062Z,99767.00
2023-01-13T09:36:32.560Z,99776.00
2023-01-13T09:39:00.560Z,99774.60
2023-01-13T09:41:52.633Z,99771.00
2023-01-13T09:44:52.173Z,99786.80
2023-01-13T09:47:34.062Z,99782.60
2023-01-13T09:50:36.320Z,99782.40
2023-01-13T09:53:17.828Z,99786.00
2023-01-13T09:55:46.890Z,99793.60
2023-01-13T09:58:18.454Z,99797.40
2023-01-13T10:00:58.223Z,99804.00
2023-01-13T10:03:35.071Z,99808.20
2023-01-13T10:06:19.142Z,99817.00
2023-01-13T10:08:49.419Z,99824.20
2023-01-13T10:11:38.611Z,99830.40
2023-01-13T10:14:18.250Z,99840.00
2023-01-13T10:17:11.903Z,99837.00
2023-01-13T10:19:52.950Z,99843.80
2023-01-13T10:23:01.844Z,99844.60
2023-01-13T10:26:17.911Z,99858.00
2023-01-13T10:28:53.402Z,99855.80
2023-01-13T10:31:23.227Z,99867.40
2023-01-13T10:34:06.155Z,99875.40
2023-01-13T10:36:33.935Z,99857.20
2023-01-13T10:39:16.929Z,99865.20
2023-01-13T10:41:45.021Z,99872.60
2023-01-13T10:44:18.803Z,99861.40
2023-01-13T10:46:56.896Z,99875.20
2023-01-13T10:49:36.364Z,99881.20
2023-01-13T10:52:27.989Z,99892.60
2023-01-13T10:54:56.819Z,99894.20
2023-01-13T10:57:27.937Z,99890.80
2023-01-13T10:59:56.302Z,99883.40
2023-01-13T11:02:31.639Z,99897.20
2023-01-13T11:05:24.469Z,99905.40
2023-01-13T11:07:54.953Z,99906.40
2023-01-13T11:10:32.627Z,99894.60
2023-01-13T11:13:12.547Z,99912.00
2023-01-13T11:15:55.511Z,99920.80
2023-01-13T11:19:11.960Z,99923.40
2023-01-13T11:22:16.013Z,99933.20
2023-01-13T11:25:03.964Z,99922.40
2023-01-13T11:27:53.669Z,99926.40
2023-01-13T11:30:25.717Z,99940.20
2023-01-13T11:33:15.487Z,99939.00
2023-01-13T11:36:04.830Z,99952.60
2023-01-13T11:38:55.751Z,99975.60
2023-01-13T11:42:12.210Z,99969.40
2023-01-13T11:45:16.855Z,99973.00
2023-01-13T11:47:48.965Z,99970.60
2023-01-13T11:50:48.189Z,99968.60
2023-01-13T11:53:54.462Z,99984.40
2023-01-13T11:56:49.249Z,99966.00
2023-01-13T11:59:50.171Z,99975.40
2023-01-13T12:03:01.173Z,99981.80
2023-01-13T12:05:48.650Z,99967.00
2023-01-13T12:08:50.131Z,99980.60
2023-01-13T12:12:13.789Z,99977.80
2023-01-13T12:15:21.231Z,99980.60
2023-01-13T12:18:37.554Z,99980.20
2023-01-13T12:21:32.757Z,99972.60
2023-01-13T12:24:31.221Z,99972.80
2023-01-13T12:27:10.674Z,99972.00
2023-01-13T12:29:39.478Z,99989.40
2023-01-13T12:32:16.762Z,99991.40
2023-01-13T12:35:46.527Z,99994.60
2023-01-13T12:38:27.323Z,99999.20
2023-01-13T12:41:03.630Z,100005.80
2023-01-13T12:43:50.621Z,100000.00
2023-01-13T12:46:21.378Z,99996.20
2023-01-13T12:48:56.828Z,100016.60
2023-01-13T12:51:34.221Z,100031.40
2023-01-13T12:54:25.387Z,100015.20
2023-01-13T12:56:54.679Z,100022.60
2023-01-13T12:59:22.350Z,100028.80
2023-01-13T13:02:17.982Z,100035.20
2023-01-13T13:04:56.833Z,100034.40
2023-01-13T13:07:30.376Z,100032.20
2023-01-13T13:10:28.378Z,100053.40
2023-01-13T13:13:18.405Z,100045.00
2023-01-13T13:15:49.902Z,100046.40
2023-01-13T13:18:17.621Z,100053.40
2023-01-13T13:21:04.443Z,100065.20
2023-01-13T13:23:53.685Z,100064.80
2023-01-13T13:26:38.749Z,100065.60
2023-01-13T13:29:30.340Z,100088.80
2023-01-13T13:32:06.587Z,100076.40
2023-01-13T13:34:50.977Z,100081.40
2023-01-13T13:37:54.706Z,100073.60
2023-01-13T13:40:42.972Z,100073.00
2023-01-13T13:43:33.832Z,100087.20
2023-01-13T13:46:20.282Z,100085.00
2023-01-13T13:48:54.253Z,100090.00
2023-01-13T13:51:30.518Z,100101.60
2023-01-13T13:53:59.423Z,100103.60
2023-01-13T13:56:32.280Z,100122.80
2023-01-13T13:59:00.148Z,100122.60
2023-01-13T14:01:38.718Z,100123.80
2023-01-13T14:04:22.422Z,100132.20
2023-01-13T14:06:52.572Z,100123.40
2023-01-13T14:09:23.416Z,100135.20
2023-01-13T14:12:06.519Z,100141.20
2023-01-13T14:14:34.252Z,100138.20
2023-01-13T14:17:04.914Z,100148.20
2023-01-13T14:19:35.744Z,100153.00
2023-01-13T14:22:05.171Z,100150.80
2023-01-13T14:24:33.319Z,100157.20
2023-01-13T14:27:16.650Z,100158.20
2023-01-13T14:29:45.532Z,100166.00
2023-01-13T14:32:19.898Z,100175.20
2023-01-13T14:34:47.843Z,100210.60
2023-01-13T14:37:43.970Z,100199.00
2023-01-13T14:40:33.203Z,100200.80
2023-01-13T14:43:02.699Z,100196.60
2023-01-13T14:45:33.070Z,100213.60
2023-01-13T14:48:07.016Z,100214.40
2023-01-13T14:50:35.086Z,100215.80
2023-01-13T14:53:04.924Z,100214.20
2023-01-13T14:55:41.319Z,100213.20
2023-01-13T14:58:28.395Z,100206.60
2023-01-13T15:01:29.472Z,100220.80
2023-01-13T15:04:26.797Z,100219.20
2023-01-13T15:06:57.041Z,100215.00
2023-01-13T15:09:40.360Z,100222.40
2023-01-13T15:12:29.975Z,100235.20
2023-01-13T15:14:58.086Z,100235.80
2023-01-13T15:17:25.823Z,100244.80
2023-01-13T15:19:53.794Z,100252.60
2023-01-13T15:22:21.515Z,100262.00
2023-01-13T15:24:49.282Z,100276.00
2023-01-13T15:27:25.519Z,100266.80
2023-01-13T15:29:53.392Z,100282.60
2023-01-13T15:32:22.827Z,100279.80
2023-01-13T15:34:52.887Z,100289.40
2023-01-13T15:37:20.748Z,100296.40
2023-01-13T15:39:48.845Z,100289.20
2023-01-13T15:42:35.143Z,100297.80
2023-01-13T15:45:21.815Z,100296.40
2023-01-13T15:47:49.599Z,100300.60
2023-01-13T15:50:18.378Z,100315.00
2023-01-13T15:52:46.123Z,100322.60
2023-01-13T15:55:13.925Z,100331.00
2023-01-13T15:57:50.066Z,100335.80
2023-01-13T16:00:22.431Z,100333.00
2023-01-13T16:02:50.682Z,100337.40
2023-01-13T16:05:18.798Z,100353.80
2023-01-13T16:07:47.048Z,100362.20
2023-01-13T16:10:26.133Z,100370.00
2023-01-13T16:12:55.900Z,100386.20
2023-01-13T16:15:24.850Z,100384.40
2023-01-13T16:18:03.401Z,100391.20
2023-01-13T16:20:31.280Z,100397.80
2023-01-13T16:22:59.075Z,100402.40
2023-01-13T16:25:27.403Z,100408.40
2023-01-13T16:27:55.142Z,100410.20
2023-01-13T16:30:31.444Z,100416.20
2023-01-13T16:32:59.618Z,100424.00
2023-01-13T16:35:28.915Z,100424.40
2023-01-13T16:37:58.448Z,100434.40
2023-01-13T16:40:32.351Z,100445.40
2023-01-13T16:43:03.414Z,100450.40
2023-01-13T16:45:31.601Z,100451.40
2023-01-13T16:48:00.219Z,100450.40
2023-01-13T16:50:36.737Z,100457.20
2023-01-13T16:53:04.564Z,100458.20
2023-01-13T16:55:32.859Z,100468.40
2023-01-13T16:58:00.631Z,100467.40
2023-01-13T17:00:29.158Z,100477.40
2023-01-13T17:03:01.062Z,100479.00
2023-01-13T17:05:29.415Z,100489.20
2023-01-13T17:07:57.519Z,100491.60
2023-01-13T17:10:25.872Z,100496.80
2023-01-13T17:12:53.631Z,100496.60
2023-01-13T17:15:21.358Z,100499.20
2023-01-13T17:17:52.021Z,100502.60
2023-01-13T17:20:19.875Z,100502.20
2023-01-13T17:22:57.689Z,100508.00
2023-01-13T17:25:26.396Z,100504.40
2023-01-13T17:27:54.161Z,100512.60
2023-01-13T17:30:22.091Z,100517.00
2023-01-13T17:32:50.176Z,100516.80
2023-01-13T17:35:22.840Z,100530.60
2023-01-13T17:37:52.356Z,100530.80
2023-01-13T17:40:20.767Z,100525.40
2023-01-13T17:42:48.445Z,100531.00
2023-01-13T17:45:16.415Z,100524.20
2023-01-13T17:47:47.291Z,100528.60
2023-01-13T17:50:17.376Z,100525.60
2023-01-13T17:52:45.084Z,100529.40
2023-01-13T17:55:12.806Z,100526.40
2023-01-13T17:57:40.612Z,100525.40
2023-01-13T18:00:09.227Z,100519.40
2023-01-13T18:02:43.099Z,100516.20
2023-01-13T18:05:12.534Z,100515.20
2023-01-13T18:07:40.359Z,100508.60
2023-01-13T18:10:09.095Z,100512.60
2023-01-13T18:12:37.119Z,100515.60
2023-01-13T18:15:05.586Z,100520.00
2023-01-13T18:17:33.424Z,100521.80
2023-01-13T18:20:19.616Z,100525.20
2023-01-13T18:23:06.021Z,100526.80
2023-01-13T18:25:52.232Z,100531.20
2023-01-13T18:28:20.029Z,100528.40
2023-01-13T18:30:48.183Z,100519.00
2023-01-13T18:33:15.904Z,100514.20
2023-01-13T18:35:43.630Z,100512.00
2023-01-13T18:38:14.689Z,100525.60
2023-01-13T18:40:45.574Z,100533.00
2023-01-13T18:43:13.461Z,100538.00
2023-01-13T18:45:41.195Z,100540.60
2023-01-13T18:48:08.983Z,100544.80
2023-01-13T18:50:36.856Z,100551.60
2023-01-13T18:53:04.732Z,100562.00
2023-01-13T18:55:32.711Z,100564.40
2023-01-13T18:58:00.851Z,100569.60
2023-01-13T19:00:31.012Z,100563.40
2023-01-13T19:05:38.655Z,100558.60
2023-01-13T19:08:08.793Z,100557.60
2023-01-13T19:10:38.736Z,100568.00
2023-01-13T19:13:06.487Z,100567.40
2023-01-13T19:15:37.481Z,100571.60
2023-01-13T19:18:05.396Z,100579.40
2023-01-13T19:20:33.150Z,100580.20
2023-01-13T19:23:00.917Z,100581.60
2023-01-13T19:25:28.654Z,100588.00
2023-01-13T19:27:56.500Z,100587.80
2023-01-13T19:30:24.357Z,100587.60
2023-01-13T19:32:52.149Z,100584.00
2023-01-13T19:35:20.078Z,100587.00
2023-01-13T19:37:47.929Z,100593.20
2023-01-13T19:40:16.331Z,100598.40
2023-01-13T19:43:03.308Z,100605.80
2023-01-13T19:45:33.829Z,100606.60
2023-01-13T19:48:04.477Z,100609.80
2023-01-13T19:50:39.380Z,100619.60
2023-01-13T19:53:16.496Z,100621.00
2023-01-13T19:55:48.370Z,100617.60
2023-01-13T19:58:18.821Z,100609.00
2023-01-13T20:00:48.332Z,100606.80
2023-01-13T20:03:25.984Z,100606.00
2023-01-13T20:05:54.722Z,100605.60
2023-01-13T20:08:22.921Z,100602.20
2023-01-13T20:10:50.805Z,100602.20
2023-01-13T20:13:18.607Z,100606.80
2023-01-13T20:15:46.425Z,100605.00
2023-01-13T20:18:14.525Z,100600.20
2023-01-13T20:20:42.254Z,100598.40
2023-01-13T20:23:10.043Z,100591.00
2023-01-13T20:25:42.779Z,100586.40
2023-01-13T20:28:10.506Z,100572.00
2023-01-13T20:30:40.245Z,100573.20
2023-01-13T20:33:07.950Z,100566.80
2023-01-13T20:35:36.149Z,100564.80
2023-01-13T20:38:03.946Z,100566.20
2023-01-13T20:40:31.783Z,100567.00
2023-01-13T20:42:59.519Z,100568.60
2023-01-13T20:45:27.522Z,100563.40
2023-01-13T20:47:55.284Z,100566.80
2023-01-13T20:50:23.114Z,100561.00
2023-01-13T20:52:52.565Z,100551.00
2023-01-13T20:55:20.362Z,100549.40
2023-01-13T20:57:49.858Z,100548.80
2023-01-13T21:00:18.848Z,100546.20
2023-01-13T21:02:46.624Z,100538.80
2023-01-13T21:05:14.636Z,100533.20
2023-01-13T21:07:42.380Z,100522.20
2023-01-13T21:10:11.447Z,100522.40
2023-01-13T21:12:57.874Z,100524.40
2023-01-13T21:15:27.369Z,100525.00
2023-01-13T21:18:13.639Z,100521.00
2023-01-13T21:20:41.506Z,100517.60
2023-01-13T21:23:10.840Z,100520.20
2023-01-13T21:25:40.053Z,100521.20
2023-01-13T21:28:11.217Z,100522.00
2023-01-13T21:30:39.728Z,100522.60
2023-01-13T21:33:07.682Z,100522.00
2023-01-13T21:35:38.787Z,100526.40
2023-01-13T21:38:06.894Z,100520.40
2023-01-13T21:40:34.665Z,100515.20
2023-01-13T21:43:21.365Z,100514.20
2023-01-13T21:46:07.716Z,100516.00
2023-01-13T21:48:35.540Z,100519.20
2023-01-13T21:51:03.666Z,100519.60
2023-01-13T21:53:31.446Z,100520.40
2023-01-13T21:55:59.189Z,100525.60
2023-01-13T21:58:27.018Z,100529.00
2023-01-13T22:00:55.095Z,100524.60
2023-01-13T22:03:22.924Z,100524.40
2023-01-13T22:05:55.712Z,100519.00
2023-01-13T22:08:23.560Z,100523.40
2023-01-13T22:10:57.821Z,100525.60
2023-01-13T22:13:47.603Z,100523.20
2023-01-13T22:16:16.060Z,100520.40
2023-01-13T22:18:44.098Z,100521.60
2023-01-13T22:21:11.945Z,100516.40
2023-01-13T22:23:39.671Z,100512.20
2023-01-13T22:26:08.706Z,100495.80
2023-01-13T22:28:40.916Z,100493.60
2023-01-13T22:31:11.061Z,100490.00
2023-01-13T22:33:40.976Z,100482.40
2023-01-13T22:36:11.560Z,100482.80
2023-01-13T22:38:39.625Z,100475.20
2023-01-13T22:41:09.543Z,100473.00
2023-01-13T22:43:39.445Z,100465.40
2023-01-13T22:46:11.226Z,100453.00
2023-01-13T22:48:41.110Z,100443.40
2023-01-13T22:51:15.708Z,100446.60
2023-01-13T22:53:43.612Z,100443.80
2023-01-13T22:56:19.619Z,100440.20
2023-01-13T22:58:48.926Z,100432.60
2023-01-13T23:01:17.595Z,100428.40
2023-01-13T23:03:48.156Z,100419.60
2023-01-13T23:06:18.965Z,100403.60
2023-01-13T23:08:48.078Z,100403.20
2023-01-13T23:11:19.101Z,100394.00
2023-01-13T23:13:47.238Z,100389.60
2023-01-13T23:16:21.029Z,100384.20
2023-01-13T23:18:49.797Z,100382.80
2023-01-13T23:21:21.544Z,100383.60
2023-01-13T23:23:50.015Z,100378.20
2023-01-13T23:26:18.810Z,100373.40
2023-01-13T23:28:46.709Z,100371.60
2023-01-13T23:31:18.974Z,100363.00
2023-01-13T23:33:47.522Z,100362.00
2023-01-13T23:36:20.525Z,100359.40
2023-01-13T23:38:48.509Z,100365.00
2023-01-13T23:41:20.957Z,100360.00
2023-01-13T23:43:58.266Z,100353.80
2023-01-13T23:46:29.022Z,100353.40
2023-01-13T23:48:56.956Z,100342.40
2023-01-13T23:51:27.332Z,100335.40
2023-01-13T23:53:55.255Z,100337.00
2023-01-13T23:56:27.619Z,100335.20
2023-01-13T23:58:56.098Z,100329.80
